Latest Coastal Weather Observations for Port Augusta

IDS60701

Issued at 1:55 am CDT Friday 31 October 2014 (issued every 10 minutes, with the page automatically refreshed every 10 minutes)

About coastal observations | Map of coastal stations | Coastal observations for SA | Marine services | Other Formats
Station Details ID: 018201 Name: PORT AUGUSTA AERO Lat: -32.51 Lon: 137.72 Height: 13.97 m
Data from the previous 72 hours. | See also: Recent months at Port Augusta
Date/Time
CDT
Temp

°C
Wind Pressure Rain
since 9am
mm
Weather Cloud Vis
km
Sea
Height
m
Swell
Dir
 
Speed
knots
Gust
knots
hPa Trend Height
m
Period
s
Dir
31/01:30am 20.7 SSE 5 7 1008.5 - 0.0 - - - - - - -
31/01:00am 20.3 ESE 4 6 1009.1 - 0.0 - - - - - - -
31/12:30am 20.0 E 3 4 1009.4 - 0.0 - - - - - - -
31/12:00am 21.6 SE 3 5 1009.7 - 0.0 - - - - - - -
 
Date/Time
CDT
Temp

°C
Wind Pressure Rain
since 9am
mm
Weather Cloud Vis
km
Sea
Height
m
Swell
Dir
 
Speed
knots
Gust
knots
hPa Trend Height
m
Period
s
Dir
30/11:30pm 21.6 S 4 5 1009.9 - 0.0 - - - - - - -
30/11:00pm 22.3 ESE 12 16 1009.8 - 0.0 - - - - - - -
30/10:30pm 22.3 ESE 14 16 1010.0 - 0.0 - - - - - - -
30/10:00pm 22.8 ESE 12 15 1010.2 - 0.0 - - - - - - -
30/09:30pm 23.4 SE 11 16 1010.1 - 0.0 - - - - - - -
30/09:00pm 24.9 SE 11 14 1009.9 - 0.0 - - - - - - -
30/08:30pm 26.3 SE 9 12 1009.7 - 0.0 - - - - - - -
30/08:00pm 26.3 SE 8 11 1009.6 - 0.0 - - - - - - -
30/07:30pm 28.3 SE 10 12 1009.6 - 0.0 - - - - - - -
30/07:00pm 28.6 SE 10 13 1009.6 - 0.0 - - - - - - -
30/06:30pm 29.0 SE 10 15 1009.7 - 0.0 - - - - - - -
30/06:00pm 29.3 SE 11 14 1009.8 - 0.0 - - - - - - -
30/05:30pm 29.6 SSE 16 19 1009.8 - 0.0 - - - - - - -
30/05:00pm 29.5 SSE 16 20 1010.0 - 0.0 - - - - - - -
30/04:30pm 30.2 SE 13 18 1010.2 - 0.0 - - - - - - -
30/04:00pm 30.6 ESE 11 15 1010.6 - 0.0 - - - - - - -
30/03:30pm 29.9 SE 12 16 1011.1 - 0.0 - - - - - - -
30/03:00pm 30.1 ESE 10 13 1011.5 - 0.0 - - - - - - -
30/02:30pm 30.2 ESE 8 11 1012.2 - 0.0 - - - - - - -
30/02:00pm 28.3 SE 7 11 1012.9 - 0.0 - - - - - - -
30/01:30pm 26.7 ESE 10 14 1013.4 - 0.0 - - - - - - -
30/01:00pm 25.8 SE 12 14 1013.7 - 0.0 - - - - - - -
30/12:30pm 25.5 ESE 13 16 1014.1 - 0.0 - - - - - - -
30/12:00pm 24.8 SE 13 16 1014.6 - 0.0 - - - - - - -
30/11:30am 23.8 SE 13 17 1015.0 - 0.0 - - - - - - -
30/11:00am 23.9 ESE 9 13 1015.4 - 0.0 - - - - - - -
30/10:30am 22.9 ESE 9 11 1015.6 - 0.0 - - - - - - -
30/10:00am 21.4 ESE 11 13 1015.5 - 0.0 - - - - - - -
30/09:30am 19.9 ESE 9 13 1015.7 - 0.0 - - - - - - -
30/09:00am 19.9 SE 12 15 1015.8 - 0.0 - - - - - - -
30/08:30am 18.8 SE 16 19 1015.7 - 0.0 - - - - - - -
30/08:00am 18.8 SSE 15 18 1015.5 - 0.0 - - - - - - -
30/07:30am 17.6 SSE 12 17 1015.4 - 0.0 - - - - - - -
30/07:00am 16.4 SE 10 13 1015.1 - 0.0 - - - - - - -
30/06:30am 15.6 SSE 8 10 1014.7 - 0.0 - - - - - - -
30/06:00am 15.4 SSE 5 7 1014.4 - 0.0 - - - - - - -
30/05:30am 16.2 SSE 9 11 1014.4 - 0.0 - - - - - - -
30/05:00am 16.5 SSE 9 13 1014.4 - 0.0 - - - - - - -
30/04:30am 17.1 SSE 9 13 1014.7 - 0.0 - - - - - - -
30/04:00am 17.7 SSE 9 13 1014.6 - 0.0 - - - - - - -
30/03:30am 17.7 SSE 11 13 1014.7 - 0.0 - - - - - - -
30/03:00am 17.6 SSE 11 14 1014.8 - 0.0 - - - - - - -
30/02:30am 18.1 SSE 12 17 1015.3 - 0.0 - - - - - - -
30/02:00am 18.2 SSE 10 13 1015.5 - 0.0 - - - - - - -
30/01:30am 18.7 SSE 11 14 1015.8 - 0.0 - - - - - - -
30/01:00am 18.9 SSE 11 15 1016.3 - 0.0 - - - - - - -
30/12:30am 19.0 SE 12 16 1016.4 - 0.0 - - - - - - -
30/12:00am 19.4 SE 11 15 1016.5 - 0.0 - - - - - - -
 
Date/Time
CDT
Temp

°C
Wind Pressure Rain
since 9am
mm
Weather Cloud Vis
km
Sea
Height
m
Swell
Dir
 
Speed
knots
Gust
knots
hPa Trend Height
m
Period
s
Dir
29/11:30pm 19.7 SSE 8 11 1017.0 - 0.0 - - - - - - -
29/11:00pm 20.0 SSE 11 15 1016.9 - 0.0 - - - - - - -
29/10:30pm 20.2 S 11 16 1016.8 - 0.0 - - - - - - -
29/10:00pm 20.2 SSE 9 14 1016.3 - 0.0 - - - - - - -
29/09:30pm 20.6 SSE 8 13 1016.1 - 0.0 - - - - - - -
29/09:00pm 21.2 S 9 15 1015.8 - 0.0 - - - - - - -
29/08:30pm 22.5 SE 14 20 1014.6 - 0.0 - - - - - - -
29/08:00pm 26.4 SE 9 14 1014.2 - 0.0 - - - - - - -
29/07:30pm 29.5 WNW 3 5 1013.7 - 0.0 - - - - - - -
29/07:00pm 31.0 W 8 10 1013.5 - 0.0 - - - - - - -
29/06:30pm 31.6 W 10 15 1013.6 - 0.0 - - - - - - -
29/06:00pm 31.7 W 9 12 1013.5 - 0.0 - - - - - - -
29/05:30pm 33.1 NNW 6 12 1013.4 - 0.0 - - - - - - -
29/05:00pm 32.7 NNW 7 20 1013.4 - 0.0 - - - - - - -
29/04:30pm 32.2 WNW 5 9 1013.7 - 0.0 - - - - - - -
29/04:00pm 31.3 WSW 5 8 1014.0 - 0.0 - - - - - - -
29/03:30pm 31.3 NNW 6 13 1014.4 - 0.0 - - - - - - -
29/03:00pm 31.7 WNW 11 15 1014.9 - 0.0 - - - - - - -
29/02:30pm 31.2 WNW 10 20 1015.5 - 0.0 - - - - - - -
29/02:00pm 31.0 WNW 8 16 1016.0 - 0.0 - - - - - - -
29/01:30pm 30.4 W 6 13 1016.4 - 0.0 - - - - - - -
29/01:00pm 29.4 W 8 13 1016.8 - 0.0 - - - - - - -
29/12:30pm 29.7 NNW 7 16 1017.3 - 0.0 - - - - - - -
29/12:00pm 27.5 NW 7 11 1017.9 - 0.0 - - - - - - -
29/11:30am 25.9 NW 4 7 1018.4 - 0.0 - - - - - - -
29/11:00am 24.8 ENE 6 9 1018.8 - 0.0 - - - - - - -
29/10:30am 22.5 E 5 7 1019.2 - 0.0 - - - - - - -
29/10:00am 21.1 ESE 6 9 1019.5 - 0.0 - - - - - - -
29/09:30am 20.6 ESE 8 11 1019.6 - 0.0 - - - - - - -
29/09:00am 20.0 SSE 10 13 1019.7 - 0.0 - - - - - - -
29/08:30am 18.2 SE 12 15 1019.6 - 0.0 - - - - - - -
29/08:00am 17.4 SE 13 17 1019.6 - 0.0 - - - - - - -
29/07:30am 16.6 SSE 11 15 1019.5 - 0.0 - - - - - - -
29/07:00am 15.1 SSE 9 12 1019.5 - 0.0 - - - - - - -
29/06:30am 14.3 SSE 9 12 1019.2 - 0.0 - - - - - - -
29/06:00am 14.2 SSE 7 9 1019.0 - 0.0 - - - - - - -
29/05:30am 14.6 SSE 7 9 1018.9 - 0.0 - - - - - - -
29/05:00am 15.0 SSE 8 11 1018.7 - 0.0 - - - - - - -
29/04:30am 15.3 SSE 7 11 1018.6 - 0.0 - - - - - - -
29/04:00am 15.6 SSE 7 12 1018.7 - 0.0 - - - - - - -
29/03:30am 15.9 S 9 11 1018.8 - 0.0 - - - - - - -
29/03:00am 15.3 SW 5 7 1018.9 - 0.0 - - - - - - -
29/02:30am 15.2 SW 4 7 1019.1 - 0.0 - - - - - - -
29/02:00am 16.0 SSW 5 7 1019.3 - 0.0 - - - - - - -
29/01:30am 16.6 S 8 11 1019.4 - 0.0 - - - - - - -
29/01:00am 16.5 S 9 12 1019.5 - 0.0 - - - - - - -
29/12:30am 16.9 SSE 9 13 1019.7 - 0.0 - - - - - - -
29/12:00am 17.2 S 9 13 1019.7 - 0.0 - - - - - - -
 
Date/Time
CDT
Temp

°C
Wind Pressure Rain
since 9am
mm
Weather Cloud Vis
km
Sea
Height
m
Swell
Dir
 
Speed
knots
Gust
knots
hPa Trend Height
m
Period
s
Dir
28/11:30pm 17.5 SSE 13 17 1019.5 - 0.0 - - - - - - -
28/11:00pm 17.2 SSE 10 14 1019.5 - 0.0 - - - - - - -
28/10:30pm 17.7 SSE 13 18 1019.4 - 0.0 - - - - - - -
28/10:00pm 18.8 SE 13 19 1019.2 - 0.0 - - - - - - -
28/09:30pm 19.2 SSE 15 19 1018.9 - 0.0 - - - - - - -
28/09:00pm 19.2 SSE 13 17 1018.8 - 0.0 - - - - - - -
28/08:30pm 19.1 SSE 14 18 1018.5 - 0.0 - - - - - - -
28/08:00pm 19.8 SSE 15 20 1018.4 - 0.0 - - - - - - -
28/07:30pm 20.4 SE 15 19 1018.4 - 0.0 - - - - - - -
28/07:00pm 21.6 SSE 15 18 1018.1 - 0.0 - - - - - - -
28/06:30pm 22.2 SSE 13 16 1018.1 - 0.0 - - - - - - -
28/06:00pm 22.9 SSE 13 16 1018.0 - 0.0 - - - - - - -
28/05:30pm 23.1 SSE 12 15 1018.1 - 0.0 - - - - - - -
28/05:00pm 22.9 SE 12 15 1018.2 - 0.0 - - - - - - -
28/04:30pm 22.6 ESE 13 16 1018.3 - 0.0 - - - - - - -
28/04:00pm 22.3 SE 12 15 1018.6 - 0.0 - - - - - - -
28/03:30pm 22.3 SE 13 16 1018.8 - 0.0 - - - - - - -
28/03:00pm 21.9 SE 12 16 1019.1 - 0.0 - - - - - - -
28/02:30pm 21.5 SE 12 15 1019.6 - 0.0 - - - - - - -
28/02:00pm 21.5 ESE 13 17 1019.9 - 0.0 - - - - - - -
28/01:30pm 21.6 ESE 14 19 1020.3 - 0.0 - - - - - - -
28/01:00pm 20.7 SE 14 19 1020.5 - 0.0 - - - - - - -
28/12:30pm 20.4 ESE 14 18 1020.8 - 0.0 - - - - - - -
28/12:00pm 19.7 ESE 13 17 1020.9 - 0.0 - - - - - - -
28/11:30am 19.7 ESE 12 16 1021.1 - 0.0 - - - - - - -
28/11:00am 19.6 ESE 12 16 1021.3 - 0.0 - - - - - - -
28/10:30am 19.4 S 8 16 1021.6 - 0.0 - - - - - - -
28/10:00am 18.3 SW 11 14 1021.7 - 0.0 - - - - - - -
28/09:30am 17.5 SSW 13 16 1021.7 - 0.0 - - - - - - -
28/09:00am 16.7 SSW 14 17 1021.7 - 0.0 - - - - - - -
28/08:30am 16.1 SSW 13 17 1021.6 - 0.0 - - - - - - -
28/08:00am 14.9 SW 12 16 1021.6 - 0.0 - - - - - - -
28/07:30am 13.7 SW 12 15 1021.2 - 0.0 - - - - - - -
28/07:00am 12.3 SW 11 13 1020.9 - 0.0 - - - - - - -
28/06:30am 12.0 SW 11 14 1020.7 - 0.0 - - - - - - -
28/06:00am 12.2 SSW 11 14 1020.4 - 0.0 - - - - - - -
28/05:30am 12.0 SSW 10 13 1020.2 - 0.0 - - - - - - -
28/05:00am 12.4 SSW 11 14 1019.8 - 0.0 - - - - - - -
28/04:30am 12.4 SSW 13 16 1019.5 - 0.0 - - - - - - -
28/04:00am 12.6 SSW 13 16 1019.2 - 0.0 - - - - - - -
28/03:30am 12.3 SSW 10 12 1019.3 - 0.0 - Partly cloudy - - - - -
28/03:00am 11.3 SSW 9 10 1019.3 - 0.0 - Mostly clear - - - - -
28/02:30am 11.9 SSW 5 6 1019.4 - 0.0 - - - - - - -
28/02:00am 11.9 S 5 8 1019.5 - 0.0 - - - - - - -

Other Formats:

Comma delimited format used in spreadsheet applications
http://www.bom.gov.au/fwo/IDS60701/IDS60701.95666.axf

JavaScript Object Notation format (JSON) in row-major order
http://www.bom.gov.au/fwo/IDS60701/IDS60701.95666.json